createdAt,value
2023-09-10T00:01:59.911Z,25.76
2023-09-10T00:04:28.225Z,25.60
2023-09-10T00:06:55.580Z,25.59
2023-09-10T00:09:23.315Z,25.64
2023-09-10T00:11:50.711Z,25.91
2023-09-10T00:14:18.643Z,25.71
2023-09-10T00:16:46.190Z,25.74
2023-09-10T00:19:13.693Z,25.42
2023-09-10T00:21:41.148Z,25.37
2023-09-10T00:24:10.048Z,25.55
2023-09-10T00:26:37.745Z,25.59
2023-09-10T00:29:05.669Z,25.63
2023-09-10T00:31:34.787Z,25.35
2023-09-10T00:34:03.379Z,25.39
2023-09-10T00:36:30.780Z,25.41
2023-09-10T00:38:58.430Z,25.14
2023-09-10T00:41:25.972Z,25.23
2023-09-10T00:43:53.502Z,25.44
2023-09-10T00:46:21.038Z,25.16
2023-09-10T00:48:49.019Z,25.19
2023-09-10T00:51:16.690Z,25.14
2023-09-10T00:53:44.482Z,25.18
2023-09-10T00:56:13.079Z,25.55
2023-09-10T00:58:41.252Z,25.24
2023-09-10T01:01:09.549Z,25.12
2023-09-10T01:03:38.629Z,25.16
2023-09-10T01:06:06.096Z,25.05
2023-09-10T01:08:33.987Z,25.01
2023-09-10T01:11:30.789Z,25.00
2023-09-10T01:14:19.574Z,25.00
2023-09-10T01:17:01.649Z,24.96
2023-09-10T01:19:53.802Z,25.01
2023-09-10T01:22:47.125Z,24.93
2023-09-10T01:25:15.289Z,24.93
2023-09-10T01:27:44.301Z,24.94
2023-09-10T01:30:12.416Z,24.99
2023-09-10T01:32:53.418Z,24.94
2023-09-10T01:35:26.889Z,24.91
2023-09-10T01:38:18.296Z,24.89
2023-09-10T01:40:47.366Z,24.90
2023-09-10T01:43:15.607Z,24.96
2023-09-10T01:45:43.999Z,24.90
2023-09-10T01:48:11.898Z,24.87
2023-09-10T01:50:39.730Z,24.88
2023-09-10T01:53:07.219Z,24.84
2023-09-10T01:55:34.709Z,24.99
2023-09-10T01:58:02.240Z,24.86
2023-09-10T02:00:30.047Z,24.92
2023-09-10T02:02:57.842Z,24.86
2023-09-10T02:05:25.261Z,24.96
2023-09-10T02:07:52.761Z,25.01
2023-09-10T02:10:20.508Z,24.84
2023-09-10T02:12:47.935Z,24.83
2023-09-10T02:15:20.789Z,24.92
2023-09-10T02:17:48.436Z,24.87
2023-09-10T02:20:16.221Z,24.86
2023-09-10T02:22:43.860Z,24.83
2023-09-10T02:25:11.478Z,24.84
2023-09-10T02:27:41.477Z,24.79
2023-09-10T02:30:09.480Z,24.71
2023-09-10T02:32:39.687Z,24.74
2023-09-10T02:35:07.770Z,24.75
2023-09-10T02:37:37.473Z,24.87
2023-09-10T02:40:09.223Z,24.85
2023-09-10T02:42:36.751Z,24.75
2023-09-10T02:45:04.767Z,24.81
2023-09-10T02:47:33.417Z,24.71
2023-09-10T02:50:00.971Z,24.74
2023-09-10T02:52:31.754Z,24.77
2023-09-10T02:55:00.794Z,24.77
2023-09-10T02:57:29.614Z,24.70
2023-09-10T02:59:57.914Z,24.65
2023-09-10T03:02:25.485Z,24.80
2023-09-10T03:04:53.247Z,24.76
2023-09-10T03:07:20.696Z,24.75
2023-09-10T03:09:50.926Z,24.69
2023-09-10T03:12:26.604Z,24.75
2023-09-10T03:14:56.516Z,24.70
2023-09-10T03:17:25.774Z,24.72
2023-09-10T03:19:53.314Z,24.72
2023-09-10T03:22:20.961Z,24.75
2023-09-10T03:24:48.534Z,24.74
2023-09-10T03:27:16.160Z,24.65
2023-09-10T03:29:45.613Z,24.65
2023-09-10T03:32:13.278Z,24.70
2023-09-10T03:34:43.412Z,24.68
2023-09-10T03:37:10.942Z,24.64
2023-09-10T03:39:38.685Z,24.65
2023-09-10T03:42:07.429Z,24.65
2023-09-10T03:44:37.841Z,24.64
2023-09-10T03:47:06.676Z,24.58
2023-09-10T03:49:36.377Z,24.67
2023-09-10T03:52:15.856Z,24.62
2023-09-10T03:54:43.460Z,24.65
2023-09-10T03:57:10.981Z,24.62
2023-09-10T03:59:38.762Z,24.62
2023-09-10T04:02:06.763Z,24.58
2023-09-10T04:04:34.711Z,24.52
2023-09-10T04:07:02.404Z,24.55
2023-09-10T04:09:32.322Z,24.56
2023-09-10T04:11:59.892Z,24.53
2023-09-10T04:14:27.905Z,24.58
2023-09-10T04:16:55.598Z,24.53
2023-09-10T04:19:24.230Z,24.52
2023-09-10T04:21:51.721Z,24.53
2023-09-10T04:24:19.267Z,24.54
2023-09-10T04:26:46.774Z,24.56
2023-09-10T04:29:15.150Z,24.62
2023-09-10T04:31:44.345Z,24.58
2023-09-10T04:34:12.577Z,24.50
2023-09-10T04:36:40.864Z,24.60
2023-09-10T04:39:10.132Z,24.46
2023-09-10T04:41:40.494Z,24.52
2023-09-10T04:44:08.092Z,24.55
2023-09-10T04:46:36.201Z,24.51
2023-09-10T04:49:03.847Z,24.81
2023-09-10T04:51:32.311Z,24.82
2023-09-10T04:54:01.068Z,25.17
2023-09-10T04:56:28.596Z,25.24
2023-09-10T04:58:56.417Z,25.38
2023-09-10T05:01:25.012Z,25.38
2023-09-10T05:03:54.432Z,25.53
2023-09-10T05:06:24.840Z,25.81
2023-09-10T05:08:52.683Z,25.91
2023-09-10T05:11:20.565Z,25.63
2023-09-10T05:13:48.035Z,25.36
2023-09-10T05:16:18.267Z,25.22
2023-09-10T05:18:45.980Z,24.90
2023-09-10T05:21:13.956Z,24.98
2023-09-10T05:23:41.390Z,24.95
2023-09-10T05:26:09.031Z,24.92
2023-09-10T05:28:39.113Z,25.23
2023-09-10T05:31:09.048Z,24.98
2023-09-10T05:33:38.607Z,24.92
2023-09-10T05:36:07.669Z,24.94
2023-09-10T05:38:35.446Z,24.81
2023-09-10T05:41:05.181Z,24.76
2023-09-10T05:43:32.962Z,24.81
2023-09-10T05:46:03.167Z,24.75
2023-09-10T05:48:32.465Z,24.78
2023-09-10T05:51:00.070Z,24.71
2023-09-10T05:53:30.251Z,24.69
2023-09-10T05:55:57.892Z,24.73
2023-09-10T05:58:26.861Z,24.71
2023-09-10T06:00:54.757Z,24.68
2023-09-10T06:03:22.498Z,24.71
2023-09-10T06:05:53.235Z,24.89
2023-09-10T06:08:24.190Z,25.70
2023-09-10T06:10:51.846Z,25.87
2023-09-10T06:13:19.966Z,25.83
2023-09-10T06:15:47.642Z,25.90
2023-09-10T06:18:15.686Z,25.94
2023-09-10T06:20:43.465Z,25.92
2023-09-10T06:24:35.525Z,26.00
2023-09-10T06:27:04.088Z,25.90
2023-09-10T06:29:34.812Z,25.88
2023-09-10T06:32:03.852Z,25.24
2023-09-10T06:34:36.021Z,24.93
2023-09-10T06:37:04.675Z,24.83
2023-09-10T06:39:40.105Z,24.92
2023-09-10T06:42:14.574Z,24.84
2023-09-10T06:44:56.506Z,24.81
2023-09-10T06:47:24.171Z,24.72
2023-09-10T06:49:51.690Z,24.98
2023-09-10T06:52:19.409Z,25.65
2023-09-10T06:54:47.747Z,25.79
2023-09-10T06:57:15.350Z,25.41
2023-09-10T06:59:42.986Z,25.67
2023-09-10T07:02:10.590Z,25.27
2023-09-10T07:04:38.138Z,25.26
2023-09-10T07:07:05.762Z,25.30
2023-09-10T07:09:33.421Z,25.38
2023-09-10T07:12:00.874Z,25.34
2023-09-10T07:14:29.339Z,25.46
2023-09-10T07:16:56.770Z,25.46
2023-09-10T07:19:24.377Z,25.43
2023-09-10T07:21:51.990Z,25.38
2023-09-10T07:24:19.351Z,25.27
2023-09-10T07:26:50.230Z,25.33
2023-09-10T07:29:18.049Z,25.01
2023-09-10T07:31:45.585Z,25.18
2023-09-10T07:34:15.268Z,25.07
2023-09-10T07:36:45.238Z,25.03
2023-09-10T07:39:15.532Z,25.34
2023-09-10T07:41:42.999Z,25.43
2023-09-10T07:44:10.702Z,25.57
2023-09-10T07:46:38.209Z,25.44
2023-09-10T07:49:05.728Z,25.67
2023-09-10T07:51:33.299Z,25.59
2023-09-10T07:54:00.728Z,25.23
2023-09-10T07:56:28.720Z,25.44
2023-09-10T07:58:56.492Z,25.30
2023-09-10T08:01:24.968Z,25.49
2023-09-10T08:03:52.535Z,25.43
2023-09-10T08:06:20.868Z,25.62
2023-09-10T08:08:48.416Z,25.50
2023-09-10T08:11:15.792Z,25.46
2023-09-10T08:13:45.798Z,25.65
2023-09-10T08:16:14.953Z,25.66
2023-09-10T08:18:43.469Z,25.69
2023-09-10T08:21:11.234Z,25.59
2023-09-10T08:23:38.665Z,25.59
2023-09-10T08:26:06.282Z,25.65
2023-09-10T08:28:33.936Z,25.58
2023-09-10T08:31:01.743Z,25.78
2023-09-10T08:33:31.671Z,25.73
2023-09-10T08:35:59.083Z,25.81
2023-09-10T08:38:27.251Z,25.81
2023-09-10T08:41:01.022Z,25.79
2023-09-10T08:44:08.865Z,25.84
2023-09-10T08:46:40.031Z,25.77
2023-09-10T08:49:13.345Z,25.96
2023-09-10T08:51:41.114Z,25.99
2023-09-10T08:54:12.220Z,26.08
2023-09-10T08:56:40.848Z,26.05
2023-09-10T08:59:11.558Z,25.97
2023-09-10T09:01:39.570Z,26.10
2023-09-10T09:04:08.191Z,26.09
2023-09-10T09:06:38.849Z,26.17
2023-09-10T09:09:09.495Z,26.15
2023-09-10T09:11:40.289Z,26.01
2023-09-10T09:14:13.962Z,26.06
2023-09-10T09:16:42.197Z,26.08
2023-09-10T09:19:15.022Z,26.04
2023-09-10T09:21:46.141Z,25.91
2023-09-10T09:24:52.880Z,25.70
2023-09-10T09:27:25.740Z,26.08
2023-09-10T09:29:55.511Z,26.20
2023-09-10T09:32:23.448Z,26.31
2023-09-10T09:34:52.011Z,26.22
2023-09-10T09:37:22.282Z,26.28
2023-09-10T09:39:51.471Z,26.24
2023-09-10T09:42:18.997Z,26.34
2023-09-10T09:44:46.971Z,26.25
2023-09-10T09:47:15.029Z,26.21
2023-09-10T09:49:48.261Z,26.23
2023-09-10T09:52:19.572Z,26.33
2023-09-10T09:54:48.865Z,26.32
2023-09-10T09:57:17.964Z,26.30
2023-09-10T09:59:45.517Z,26.35
2023-09-10T10:02:18.733Z,26.40
2023-09-10T10:04:46.793Z,26.26
2023-09-10T10:09:46.262Z,26.17
2023-09-10T10:12:16.292Z,26.34
2023-09-10T10:14:44.367Z,26.32
2023-09-10T10:17:12.829Z,26.31
2023-09-10T10:19:41.996Z,26.27
2023-09-10T10:22:10.034Z,26.27
2023-09-10T10:24:39.391Z,26.24
2023-09-10T10:27:07.638Z,26.30
2023-09-10T10:29:35.635Z,26.36
2023-09-10T10:32:13.978Z,26.36
2023-09-10T10:34:50.051Z,26.28
2023-09-10T10:37:43.635Z,26.29
2023-09-10T10:40:17.256Z,26.28
2023-09-10T10:42:47.522Z,26.46
2023-09-10T10:45:18.397Z,26.36
2023-09-10T10:47:48.691Z,26.27
2023-09-10T10:50:28.732Z,26.42
2023-09-10T10:53:07.845Z,26.45
2023-09-10T10:55:35.751Z,26.56
2023-09-10T10:58:03.523Z,26.54
2023-09-10T11:00:31.380Z,26.46
2023-09-10T11:03:25.181Z,26.39
2023-09-10T11:05:56.444Z,26.53
2023-09-10T11:08:33.214Z,26.51
2023-09-10T11:11:05.094Z,26.40
2023-09-10T11:14:03.154Z,26.52
2023-09-10T11:16:34.867Z,26.42
2023-09-10T11:19:05.443Z,26.15
2023-09-10T11:21:55.116Z,26.17
2023-09-10T11:24:25.682Z,26.02
2023-09-10T11:27:25.065Z,26.02
2023-09-10T11:30:15.539Z,26.15
2023-09-10T11:32:46.536Z,26.15
2023-09-10T11:35:21.384Z,26.27
2023-09-10T11:37:57.036Z,26.49
2023-09-10T11:40:27.042Z,26.24
2023-09-10T11:42:54.830Z,26.21
2023-09-10T11:45:24.581Z,26.51
2023-09-10T11:47:52.848Z,26.53
2023-09-10T11:50:24.679Z,26.53
2023-09-10T11:52:52.796Z,26.58
2023-09-10T11:55:20.734Z,26.70
2023-09-10T11:57:48.497Z,26.68
2023-09-10T12:00:17.569Z,26.60
2023-09-10T12:02:45.215Z,26.56
2023-09-10T12:05:12.922Z,26.59
2023-09-10T12:07:44.669Z,26.61
2023-09-10T12:10:14.909Z,26.61
2023-09-10T12:12:45.445Z,26.67
2023-09-10T12:15:13.541Z,26.62
2023-09-10T12:17:41.972Z,26.65
2023-09-10T12:20:10.581Z,26.59
2023-09-10T12:22:38.233Z,26.56
2023-09-10T12:25:06.623Z,26.58
2023-09-10T12:27:34.146Z,26.57
2023-09-10T12:30:01.773Z,26.56
2023-09-10T12:32:31.234Z,26.52
2023-09-10T12:34:59.231Z,26.59
2023-09-10T12:37:26.698Z,26.55
2023-09-10T12:39:54.798Z,26.68
2023-09-10T12:42:22.269Z,26.62
2023-09-10T12:44:49.681Z,26.54
2023-09-10T12:47:17.569Z,26.51
2023-09-10T12:49:45.478Z,26.58
2023-09-10T12:52:12.844Z,26.51
2023-09-10T12:54:40.750Z,26.46
2023-09-10T12:57:09.272Z,26.53
2023-09-10T12:59:37.534Z,26.39
2023-09-10T13:02:05.669Z,26.40
2023-09-10T13:04:33.576Z,26.39
2023-09-10T13:07:01.201Z,26.39
2023-09-10T13:09:28.705Z,26.33
2023-09-10T13:11:56.229Z,26.50
2023-09-10T13:14:23.790Z,26.38
2023-09-10T13:16:51.300Z,26.36
2023-09-10T13:19:18.988Z,26.36
2023-09-10T13:21:46.295Z,26.36
2023-09-10T13:24:13.818Z,26.48
2023-09-10T13:26:41.537Z,26.48
2023-09-10T13:29:09.054Z,26.36
2023-09-10T13:31:36.458Z,26.30
2023-09-10T13:34:06.327Z,26.44
2023-09-10T13:36:34.067Z,26.42
2023-09-10T13:39:01.464Z,26.41
2023-09-10T13:41:28.944Z,26.32
2023-09-10T13:43:58.874Z,26.25
2023-09-10T13:46:26.565Z,26.34
2023-09-10T13:48:54.341Z,26.35
2023-09-10T13:51:21.953Z,26.43
2023-09-10T13:53:50.094Z,26.36
2023-09-10T13:56:17.862Z,26.46
2023-09-10T13:58:45.216Z,26.44
2023-09-10T14:01:13.879Z,26.42
2023-09-10T14:03:44.475Z,26.43
2023-09-10T14:06:12.081Z,26.45
2023-09-10T14:08:40.200Z,26.54
2023-09-10T14:11:07.908Z,26.29
2023-09-10T14:13:35.658Z,26.40
2023-09-10T14:16:03.100Z,26.28
2023-09-10T14:18:30.955Z,25.96
2023-09-10T14:20:58.592Z,25.80
2023-09-10T14:23:29.034Z,25.69
2023-09-10T14:25:56.737Z,25.52
2023-09-10T14:28:24.528Z,25.35
2023-09-10T14:30:52.339Z,25.64
2023-09-10T14:33:24.637Z,25.70
2023-09-10T14:35:53.665Z,25.83
2023-09-10T14:38:21.311Z,25.95
2023-09-10T14:40:48.816Z,26.00
2023-09-10T14:43:19.489Z,25.90
2023-09-10T14:45:47.182Z,25.69
2023-09-10T14:48:15.028Z,25.92
2023-09-10T14:50:42.636Z,25.96
2023-09-10T14:53:10.402Z,25.80
2023-09-10T14:55:38.292Z,25.95
2023-09-10T14:58:10.636Z,25.98
2023-09-10T15:00:40.760Z,25.96
2023-09-10T15:03:08.857Z,25.97
2023-09-10T15:05:36.781Z,25.98
2023-09-10T15:08:05.066Z,26.01
2023-09-10T15:10:32.827Z,26.32
2023-09-10T15:13:00.237Z,26.26
2023-09-10T15:15:29.956Z,26.34
2023-09-10T15:17:57.450Z,26.35
2023-09-10T15:20:25.127Z,26.33
2023-09-10T15:22:52.784Z,26.39
2023-09-10T15:25:20.612Z,26.44
2023-09-10T15:27:48.305Z,26.59
2023-09-10T15:30:15.824Z,26.51
2023-09-10T15:32:43.608Z,26.41
2023-09-10T15:35:11.363Z,26.32
2023-09-10T15:37:38.912Z,26.33
2023-09-10T15:40:07.176Z,26.42
2023-09-10T15:42:34.609Z,26.35
2023-09-10T15:45:06.024Z,26.39
2023-09-10T15:47:33.970Z,26.42
2023-09-10T15:50:01.885Z,26.44
2023-09-10T15:52:30.192Z,26.39
2023-09-10T15:54:57.602Z,26.34
2023-09-10T15:57:28.050Z,26.35
2023-09-10T15:59:55.873Z,26.34
2023-09-10T16:02:28.063Z,26.45
2023-09-10T16:04:56.810Z,26.44
2023-09-10T16:07:26.132Z,26.40
2023-09-10T16:09:54.045Z,26.35
2023-09-10T16:12:24.121Z,26.45
2023-09-10T16:14:51.527Z,26.38
2023-09-10T16:17:19.330Z,26.58
2023-09-10T16:19:46.724Z,26.45
2023-09-10T16:22:20.666Z,26.56
2023-09-10T16:24:48.129Z,26.35
2023-09-10T16:27:18.188Z,26.42
2023-09-10T16:29:46.031Z,26.46
2023-09-10T16:32:13.837Z,26.45
2023-09-10T16:34:41.495Z,26.58
2023-09-10T16:37:11.582Z,26.57
2023-09-10T16:39:41.677Z,26.47
2023-09-10T16:42:09.366Z,26.46
2023-09-10T16:44:36.886Z,26.37
2023-09-10T16:47:04.718Z,26.39
2023-09-10T16:49:32.327Z,26.69
2023-09-10T16:52:04.591Z,26.48
2023-09-10T16:54:37.523Z,26.54
2023-09-10T17:01:45.039Z,26.35
2023-09-10T17:04:12.719Z,26.42
2023-09-10T17:06:40.732Z,26.30
2023-09-10T17:09:24.018Z,26.34
2023-09-10T17:11:52.698Z,26.43
2023-09-10T17:14:20.848Z,26.46
2023-09-10T17:16:48.763Z,26.42
2023-09-10T17:19:17.422Z,26.41
2023-09-10T17:21:47.364Z,26.47
2023-09-10T17:24:15.417Z,26.52
2023-09-10T17:26:43.073Z,26.42
2023-09-10T17:29:12.789Z,26.37
2023-09-10T17:31:40.229Z,26.47
2023-09-10T17:34:11.141Z,26.39
2023-09-10T17:36:38.605Z,26.40
2023-09-10T17:39:06.185Z,26.38
2023-09-10T17:41:37.961Z,26.40
2023-09-10T17:44:06.256Z,26.35
2023-09-10T17:46:34.228Z,26.44
2023-09-10T17:49:01.886Z,26.40
2023-09-10T17:51:29.588Z,26.35
2023-09-10T17:53:56.939Z,26.41
2023-09-10T17:56:24.462Z,26.38
2023-09-10T17:58:51.957Z,26.49
2023-09-10T18:01:19.626Z,26.40
2023-09-10T18:03:47.558Z,26.56
2023-09-10T18:06:15.059Z,26.43
2023-09-10T18:08:45.320Z,26.43
2023-09-10T18:11:12.754Z,26.42
2023-09-10T18:13:42.625Z,26.38
2023-09-10T18:16:10.770Z,26.54
2023-09-10T18:18:38.486Z,26.44
2023-09-10T18:21:07.075Z,26.46
2023-09-10T18:23:37.907Z,26.45
2023-09-10T18:26:06.275Z,26.48
2023-09-10T18:28:34.206Z,26.50
2023-09-10T18:31:07.409Z,26.43
2023-09-10T18:33:38.526Z,26.39
2023-09-10T18:36:06.133Z,26.35
2023-09-10T18:38:51.205Z,26.38
2023-09-10T18:41:19.113Z,26.44
2023-09-10T18:43:46.788Z,26.31
2023-09-10T18:46:16.785Z,26.43
2023-09-10T18:48:44.384Z,26.48
2023-09-10T18:51:11.879Z,26.33
2023-09-10T18:53:40.008Z,26.49
2023-09-10T18:56:10.288Z,26.41
2023-09-10T18:58:37.925Z,26.40
2023-09-10T19:01:05.921Z,26.35
2023-09-10T19:03:33.803Z,26.40
2023-09-10T19:06:01.857Z,26.39
2023-09-10T19:08:31.265Z,26.47
2023-09-10T19:11:00.018Z,26.48
2023-09-10T19:13:27.941Z,26.46
2023-09-10T19:15:55.573Z,26.58
2023-09-10T19:18:23.267Z,26.50
2023-09-10T19:20:51.441Z,26.54
2023-09-10T19:23:19.627Z,26.61
2023-09-10T19:25:56.780Z,26.57
2023-09-10T19:28:52.110Z,26.48
2023-09-10T19:31:21.267Z,26.55
2023-09-10T19:33:49.135Z,26.52
2023-09-10T19:36:18.093Z,26.47
2023-09-10T19:38:46.161Z,26.45
2023-09-10T19:41:13.678Z,26.46
2023-09-10T19:43:41.382Z,26.47
2023-09-10T19:46:08.971Z,26.30
2023-09-10T19:48:37.105Z,26.45
2023-09-10T19:51:08.230Z,26.44
2023-09-10T19:53:36.315Z,26.48
2023-09-10T19:56:12.048Z,26.45
2023-09-10T19:58:39.835Z,26.40
2023-09-10T20:01:07.707Z,26.48
2023-09-10T20:03:35.338Z,26.41
2023-09-10T20:06:03.371Z,26.41
2023-09-10T20:08:31.107Z,26.38
2023-09-10T20:10:58.811Z,26.42
2023-09-10T20:13:26.521Z,26.42
2023-09-10T20:15:53.919Z,26.44
2023-09-10T20:18:21.678Z,26.48
2023-09-10T20:20:58.283Z,26.51
2023-09-10T20:23:27.092Z,26.48
2023-09-10T20:25:55.115Z,26.42
2023-09-10T20:28:23.134Z,26.39
2023-09-10T20:30:50.611Z,26.32
2023-09-10T20:33:18.366Z,26.11
2023-09-10T20:35:45.955Z,26.42
2023-09-10T20:38:13.840Z,26.29
2023-09-10T20:40:41.341Z,26.23
2023-09-10T20:43:10.003Z,26.26
2023-09-10T20:45:39.057Z,26.22
2023-09-10T20:48:07.231Z,26.11
2023-09-10T20:50:34.936Z,26.16
2023-09-10T20:53:02.780Z,26.12
2023-09-10T20:55:30.292Z,25.93
2023-09-10T20:57:57.734Z,26.19
2023-09-10T21:00:26.192Z,26.22
2023-09-10T21:02:57.494Z,26.15
2023-09-10T21:05:30.017Z,26.05
2023-09-10T21:07:58.165Z,26.07
2023-09-10T21:10:25.705Z,26.11
2023-09-10T21:12:58.431Z,25.84
2023-09-10T21:15:34.001Z,25.89
2023-09-10T21:18:01.948Z,25.74
2023-09-10T21:20:30.238Z,25.86
2023-09-10T21:22:58.874Z,25.53
2023-09-10T21:25:26.435Z,25.47
2023-09-10T21:27:54.100Z,25.36
2023-09-10T21:30:21.680Z,25.20
2023-09-10T21:32:49.660Z,25.56
2023-09-10T21:35:17.049Z,25.49
2023-09-10T21:37:44.619Z,25.39
2023-09-10T21:40:12.566Z,25.50
2023-09-10T21:42:40.290Z,25.36
2023-09-10T21:45:08.333Z,25.16
2023-09-10T21:47:35.916Z,25.10
2023-09-10T21:50:03.515Z,25.06
2023-09-10T21:52:31.025Z,25.00
2023-09-10T21:54:58.435Z,25.06
2023-09-10T21:57:26.032Z,25.04
2023-09-10T21:59:53.554Z,25.07
2023-09-10T22:02:21.335Z,25.06
2023-09-10T22:04:48.690Z,25.15
2023-09-10T22:07:19.809Z,25.06
2023-09-10T22:09:47.536Z,25.13
2023-09-10T22:12:15.043Z,25.13
2023-09-10T22:14:42.629Z,25.03
2023-09-10T22:17:10.176Z,25.13
2023-09-10T22:19:37.837Z,25.16
2023-09-10T22:22:05.637Z,25.00
2023-09-10T22:24:33.087Z,24.99
2023-09-10T22:27:00.807Z,25.03
2023-09-10T22:29:28.275Z,25.17
2023-09-10T22:31:58.153Z,24.94
2023-09-10T22:34:25.665Z,24.98
2023-09-10T22:36:55.609Z,24.95
2023-09-10T22:39:23.470Z,25.04
2023-09-10T22:41:51.083Z,24.94
2023-09-10T22:44:18.604Z,25.00
2023-09-10T22:46:46.170Z,24.96
2023-09-10T22:49:13.758Z,25.02
2023-09-10T22:51:44.285Z,24.99
2023-09-10T22:54:11.886Z,25.06
2023-09-10T22:56:41.616Z,24.96
2023-09-10T22:59:09.338Z,24.97
2023-09-10T23:01:37.109Z,24.89
2023-09-10T23:04:06.636Z,24.92
2023-09-10T23:06:34.350Z,24.81
2023-09-10T23:09:02.281Z,24.89
2023-09-10T23:11:30.126Z,24.93
2023-09-10T23:13:57.809Z,24.89
2023-09-10T23:16:25.450Z,24.92
2023-09-10T23:18:52.932Z,24.84
2023-09-10T23:21:20.952Z,24.86
2023-09-10T23:23:48.392Z,25.03
2023-09-10T23:26:16.107Z,24.96
2023-09-10T23:28:43.796Z,24.93
2023-09-10T23:31:11.677Z,24.89
2023-09-10T23:33:39.285Z,24.86
2023-09-10T23:36:07.346Z,24.92
2023-09-10T23:38:35.294Z,24.80
2023-09-10T23:41:03.171Z,24.88
2023-09-10T23:43:30.742Z,24.83
2023-09-10T23:45:58.490Z,24.79
2023-09-10T23:48:25.893Z,24.78
2023-09-10T23:50:55.774Z,24.81
2023-09-10T23:53:23.445Z,24.86
2023-09-10T23:55:50.944Z,24.84
2023-09-10T23:58:18.593Z,24.78
